createdAt,value
2018-05-15T00:00:51.722Z,8.05
2018-05-15T00:03:19.434Z,8.50
2018-05-15T00:05:47.120Z,8.35
2018-05-15T00:08:15.591Z,8.20
2018-05-15T00:10:44.040Z,7.57
2018-05-15T00:13:11.758Z,8.10
2018-05-15T00:15:39.458Z,7.90
2018-05-15T00:18:07.144Z,8.05
2018-05-15T00:20:34.861Z,8.02
2018-05-15T00:23:02.585Z,7.82
2018-05-15T00:25:31.054Z,7.80
2018-05-15T00:27:58.764Z,7.60
2018-05-15T00:30:26.458Z,7.87
2018-05-15T00:32:54.155Z,7.75
2018-05-15T00:35:21.836Z,7.50
2018-05-15T00:37:50.293Z,7.40
2018-05-15T00:40:17.998Z,7.32
2018-05-15T00:42:45.679Z,7.60
2018-05-15T00:45:13.417Z,7.03
2018-05-15T00:47:41.104Z,7.20
2018-05-15T00:50:08.801Z,7.00
2018-05-15T00:52:36.484Z,7.22
2018-05-15T00:55:15.980Z,7.12
2018-05-15T00:57:43.668Z,7.43
2018-05-15T01:00:11.424Z,7.03
2018-05-15T01:02:39.133Z,7.22
2018-05-15T01:05:06.873Z,6.80
2018-05-15T01:07:34.581Z,6.68
2018-05-15T01:10:02.283Z,6.95
2018-05-15T01:12:29.979Z,6.90
2018-05-15T01:14:58.439Z,7.03
2018-05-15T01:17:26.119Z,6.22
2018-05-15T01:19:54.575Z,6.47
2018-05-15T01:22:22.289Z,6.80
2018-05-15T01:24:49.987Z,6.55
2018-05-15T01:27:17.748Z,6.35
2018-05-15T01:29:45.490Z,6.50
2018-05-15T01:32:13.180Z,6.20
2018-05-15T01:34:40.872Z,7.07
2018-05-15T01:37:08.570Z,6.60
2018-05-15T01:39:36.273Z,6.43
2018-05-15T01:42:03.956Z,6.53
2018-05-15T01:44:31.649Z,6.60
2018-05-15T01:47:00.132Z,6.50
2018-05-15T01:49:28.638Z,6.37
2018-05-15T01:51:56.363Z,6.00
2018-05-15T01:54:24.064Z,6.10
2018-05-15T01:56:51.764Z,6.15
2018-05-15T01:59:19.464Z,6.57
2018-05-15T02:01:47.935Z,5.72
2018-05-15T02:04:15.615Z,6.37
2018-05-15T02:06:44.077Z,6.25
2018-05-15T02:09:11.770Z,5.72
2018-05-15T02:11:40.264Z,6.22
2018-05-15T02:14:07.974Z,6.30
2018-05-15T02:16:35.676Z,6.00
2018-05-15T02:19:04.214Z,6.27
2018-05-15T02:21:32.123Z,6.07
2018-05-15T02:24:00.585Z,5.97
2018-05-15T02:26:28.274Z,6.50
2018-05-15T02:28:55.991Z,5.90
2018-05-15T02:31:23.698Z,6.05
2018-05-15T02:33:52.166Z,5.60
2018-05-15T02:36:20.765Z,5.97
2018-05-15T02:38:49.241Z,5.78
2018-05-15T02:41:18.651Z,6.07
2018-05-15T02:43:47.116Z,5.72
2018-05-15T02:46:14.801Z,5.93
2018-05-15T02:48:43.257Z,5.87
2018-05-15T02:51:10.977Z,5.80
2018-05-15T02:53:38.671Z,6.20
2018-05-15T02:56:06.729Z,6.17
2018-05-15T02:58:34.448Z,5.93
2018-05-15T03:01:02.144Z,6.00
2018-05-15T03:03:29.836Z,5.75
2018-05-15T03:05:57.545Z,6.07
2018-05-15T03:08:25.233Z,5.95
2018-05-15T03:10:52.937Z,5.93
2018-05-15T03:13:20.667Z,6.00
2018-05-15T03:15:48.378Z,5.75
2018-05-15T03:18:16.848Z,5.37
2018-05-15T03:20:44.531Z,5.57
2018-05-15T03:23:13.014Z,5.80
2018-05-15T03:25:41.476Z,5.80
2018-05-15T03:28:09.180Z,6.00
2018-05-15T03:30:36.918Z,5.90
2018-05-15T03:33:05.402Z,5.33
2018-05-15T03:35:33.861Z,5.40
2018-05-15T03:38:01.595Z,5.68
2018-05-15T03:40:29.298Z,5.60
2018-05-15T03:42:56.984Z,5.70
2018-05-15T03:45:25.431Z,5.40
2018-05-15T03:47:53.138Z,5.67
2018-05-15T03:50:20.839Z,5.57
2018-05-15T03:52:48.575Z,6.00
2018-05-15T03:55:16.688Z,5.70
2018-05-15T03:57:44.398Z,5.77
2018-05-15T04:00:24.052Z,5.15
2018-05-15T04:03:03.423Z,5.97
2018-05-15T04:05:42.932Z,5.50
2018-05-15T04:08:17.890Z,5.43
2018-05-15T04:10:45.762Z,5.87
2018-05-15T04:13:13.448Z,5.90
2018-05-15T04:15:41.156Z,5.63
2018-05-15T04:18:08.857Z,5.60
2018-05-15T04:20:36.562Z,5.75
2018-05-15T04:23:05.025Z,5.40
2018-05-15T04:25:33.620Z,5.62
2018-05-15T04:28:02.122Z,5.73
2018-05-15T04:30:29.824Z,5.00
2018-05-15T04:32:57.547Z,5.27
2018-05-15T04:35:27.017Z,5.30
2018-05-15T04:37:54.708Z,5.53
2018-05-15T04:40:23.151Z,5.53
2018-05-15T04:42:50.881Z,4.97
2018-05-15T04:45:19.193Z,5.63
2018-05-15T04:47:46.903Z,5.53
2018-05-15T04:50:15.391Z,5.20
2018-05-15T04:52:43.102Z,5.50
2018-05-15T04:55:10.874Z,5.40
2018-05-15T04:57:38.574Z,5.40
2018-05-15T05:00:07.041Z,5.33
2018-05-15T05:02:34.767Z,5.00
2018-05-15T05:05:02.474Z,5.32
2018-05-15T05:07:30.941Z,5.45
2018-05-15T05:09:58.636Z,5.37
2018-05-15T05:12:27.089Z,5.10
2018-05-15T05:14:54.781Z,5.10
2018-05-15T05:17:23.263Z,5.17
2018-05-15T05:19:50.959Z,5.50
2018-05-15T05:22:18.654Z,5.63
2018-05-15T05:24:46.349Z,5.20
2018-05-15T05:27:14.820Z,5.43
2018-05-15T05:29:42.557Z,5.43
2018-05-15T05:32:10.258Z,5.30
2018-05-15T05:34:38.715Z,5.07
2018-05-15T05:37:06.623Z,5.13
2018-05-15T05:39:34.344Z,5.20
2018-05-15T05:42:02.039Z,5.10
2018-05-15T05:47:04.465Z,5.35
2018-05-15T05:49:32.157Z,5.47
2018-05-15T05:51:59.887Z,5.00
2018-05-15T05:54:27.602Z,5.10
2018-05-15T05:56:55.317Z,5.35
2018-05-15T05:59:23.008Z,5.33
2018-05-15T06:01:50.736Z,4.93
2018-05-15T06:04:19.190Z,5.20
2018-05-15T06:06:47.646Z,5.10
2018-05-15T06:09:15.349Z,5.43
2018-05-15T06:11:43.822Z,5.33
2018-05-15T06:14:12.318Z,5.10
2018-05-15T06:16:40.008Z,5.40
2018-05-15T06:19:07.696Z,5.20
2018-05-15T06:21:35.389Z,4.83
2018-05-15T06:24:03.868Z,5.37
2018-05-15T06:26:32.319Z,5.47
2018-05-15T06:29:00.027Z,5.10
2018-05-15T06:31:27.755Z,5.60
2018-05-15T06:33:55.566Z,5.90
2018-05-15T06:36:23.225Z,5.77
2018-05-15T06:38:51.691Z,5.47
2018-05-15T06:41:20.240Z,5.80
2018-05-15T06:43:47.931Z,6.00
2018-05-15T06:46:15.618Z,6.07
2018-05-15T06:48:43.314Z,5.07
2018-05-15T06:51:11.008Z,5.72
2018-05-15T06:53:38.701Z,5.65
2018-05-15T06:56:06.415Z,5.68
2018-05-15T06:58:34.121Z,5.43
2018-05-15T07:01:02.596Z,5.60
2018-05-15T07:03:30.293Z,5.70
2018-05-15T07:05:58.029Z,6.12
2018-05-15T07:08:26.520Z,5.03
2018-05-15T07:10:54.979Z,6.10
2018-05-15T07:13:22.699Z,5.50
2018-05-15T07:15:50.395Z,5.95
2018-05-15T07:18:18.229Z,5.72
2018-05-15T07:20:45.945Z,5.53
2018-05-15T07:23:13.637Z,5.55
2018-05-15T07:25:41.390Z,5.30
2018-05-15T07:28:09.837Z,5.40
2018-05-15T07:30:37.529Z,4.90
2018-05-15T07:33:05.989Z,5.18
2018-05-15T07:35:33.676Z,5.40
2018-05-15T07:38:02.133Z,5.35
2018-05-15T07:40:29.829Z,5.60
2018-05-15T07:42:58.292Z,5.85
2018-05-15T07:45:26.756Z,5.37
2018-05-15T07:47:54.479Z,6.05
2018-05-15T07:50:22.216Z,5.43
2018-05-15T07:52:50.694Z,5.53
2018-05-15T07:55:19.457Z,5.75
2018-05-15T07:57:47.138Z,6.30
2018-05-15T08:00:15.587Z,5.90
2018-05-15T08:02:43.290Z,5.60
2018-05-15T08:05:11.748Z,5.90
2018-05-15T08:07:39.452Z,6.40
2018-05-15T08:10:07.165Z,5.87
2018-05-15T08:12:34.852Z,6.05
2018-05-15T08:15:03.349Z,6.10
2018-05-15T08:17:31.808Z,5.87
2018-05-15T08:19:59.500Z,6.05
2018-05-15T08:22:28.007Z,5.90
2018-05-15T08:24:55.688Z,5.78
2018-05-15T08:27:23.517Z,6.50
2018-05-15T08:29:51.219Z,5.78
2018-05-15T08:32:18.939Z,5.85
2018-05-15T08:34:47.400Z,6.10
2018-05-15T08:37:15.970Z,6.03
2018-05-15T08:39:43.608Z,6.30
2018-05-15T08:42:11.310Z,5.95
2018-05-15T08:44:39.037Z,6.03
2018-05-15T08:47:06.735Z,6.43
2018-05-15T08:49:34.443Z,6.05
2018-05-15T08:52:02.145Z,6.20
2018-05-15T08:54:29.869Z,5.93
2018-05-15T08:56:57.569Z,5.82
2018-05-15T08:59:25.264Z,5.72
2018-05-15T09:01:53.720Z,6.22
2018-05-15T09:04:21.418Z,6.05
2018-05-15T09:06:49.881Z,6.10
2018-05-15T09:09:18.374Z,5.90
2018-05-15T09:11:46.815Z,6.15
2018-05-15T09:14:14.524Z,5.93
2018-05-15T09:16:43.017Z,6.07
2018-05-15T09:19:10.719Z,5.53
2018-05-15T09:21:38.418Z,5.97
2018-05-15T09:24:06.202Z,6.22
2018-05-15T09:26:34.658Z,6.10
2018-05-15T09:29:02.352Z,6.25
2018-05-15T09:31:30.045Z,5.90
2018-05-15T09:33:57.742Z,5.80
2018-05-15T09:36:25.524Z,6.57
2018-05-15T09:38:53.245Z,5.70
2018-05-15T09:41:21.665Z,5.60
2018-05-15T09:43:56.376Z,5.97
2018-05-15T09:46:24.099Z,6.22
2018-05-15T09:48:51.796Z,6.20
2018-05-15T09:51:20.058Z,5.68
2018-05-15T09:53:47.763Z,6.07
2018-05-15T09:56:16.271Z,6.00
2018-05-15T09:58:44.018Z,5.82
2018-05-15T10:01:12.484Z,5.97
2018-05-15T10:03:40.200Z,5.85
2018-05-15T10:06:08.669Z,5.70
2018-05-15T10:08:36.356Z,5.53
2018-05-15T10:11:04.060Z,5.82
2018-05-15T10:13:31.762Z,5.60
2018-05-15T10:15:59.463Z,6.03
2018-05-15T10:18:27.188Z,5.47
2018-05-15T10:20:54.880Z,5.78
2018-05-15T10:23:22.635Z,5.50
2018-05-15T10:25:50.343Z,5.50
2018-05-15T10:28:18.036Z,6.07
2018-05-15T10:30:45.754Z,5.90
2018-05-15T10:33:13.629Z,5.62
2018-05-15T10:35:41.335Z,6.15
2018-05-15T10:38:09.054Z,5.43
2018-05-15T10:40:36.769Z,5.50
2018-05-15T10:43:04.486Z,6.00
2018-05-15T10:45:32.192Z,5.53
2018-05-15T10:47:59.895Z,5.87
2018-05-15T10:50:27.605Z,5.85
2018-05-15T10:52:56.066Z,5.85
2018-05-15T10:55:24.593Z,5.78
2018-05-15T10:57:52.298Z,5.30
2018-05-15T11:00:20.001Z,5.72
2018-05-15T11:02:48.493Z,5.12
2018-05-15T11:05:16.321Z,5.25
2018-05-15T11:07:44.030Z,5.62
2018-05-15T11:10:11.742Z,5.18
2018-05-15T11:12:39.472Z,5.53
2018-05-15T11:15:07.172Z,5.62
2018-05-15T11:17:34.898Z,5.32
2018-05-15T11:20:14.417Z,5.68
2018-05-15T11:22:54.695Z,5.47
2018-05-15T11:25:23.176Z,5.78
2018-05-15T11:27:50.872Z,5.37
2018-05-15T11:30:18.573Z,6.03
2018-05-15T11:32:47.030Z,5.45
2018-05-15T11:35:14.731Z,5.45
2018-05-15T11:37:42.418Z,5.35
2018-05-15T11:40:10.321Z,5.33
2018-05-15T11:42:38.014Z,5.55
2018-05-15T11:45:06.510Z,5.55
2018-05-15T11:47:35.169Z,5.30
2018-05-15T11:50:03.509Z,5.40
2018-05-15T11:52:32.072Z,5.72
2018-05-15T11:54:59.715Z,5.53
2018-05-15T11:57:28.178Z,5.00
2018-05-15T11:59:55.959Z,5.90
2018-05-15T12:02:23.653Z,5.40
2018-05-15T12:04:51.386Z,5.50
2018-05-15T12:07:19.858Z,5.35
2018-05-15T12:09:48.332Z,5.30
2018-05-15T12:12:16.033Z,5.93
2018-05-15T12:14:43.736Z,5.30
2018-05-15T12:17:11.434Z,5.65
2018-05-15T12:19:39.905Z,5.32
2018-05-15T12:22:07.580Z,5.30
2018-05-15T12:24:36.130Z,5.60
2018-05-15T12:27:04.577Z,5.32
2018-05-15T12:29:32.270Z,5.50
2018-05-15T12:31:59.965Z,5.37
2018-05-15T12:34:27.658Z,5.50
2018-05-15T12:36:55.392Z,5.47
2018-05-15T12:39:24.039Z,5.20
2018-05-15T12:41:51.825Z,5.55
2018-05-15T12:44:20.416Z,5.12
2018-05-15T12:46:48.139Z,5.25
2018-05-15T12:49:15.869Z,5.57
2018-05-15T12:51:44.330Z,5.35
2018-05-15T12:54:12.035Z,5.35
2018-05-15T12:56:39.755Z,5.15
2018-05-15T12:59:07.449Z,5.10
2018-05-15T13:01:35.905Z,5.43
2018-05-15T13:04:03.604Z,5.43
2018-05-15T13:06:31.312Z,5.20
2018-05-15T13:08:59.010Z,5.30
2018-05-15T13:11:27.523Z,5.12
2018-05-15T13:13:55.216Z,5.32
2018-05-15T13:16:22.941Z,5.25
2018-05-15T13:18:50.635Z,5.03
2018-05-15T13:21:18.352Z,5.05
2018-05-15T13:23:46.822Z,5.30
2018-05-15T13:26:14.516Z,5.00
2018-05-15T13:28:42.249Z,5.28
2018-05-15T13:31:10.712Z,4.68
2018-05-15T13:33:38.403Z,4.97
2018-05-15T13:36:06.880Z,4.97
2018-05-15T13:38:34.574Z,5.28
2018-05-15T13:41:02.282Z,5.22
2018-05-15T13:43:29.999Z,4.75
2018-05-15T13:45:57.692Z,5.10
2018-05-15T13:48:25.385Z,4.60
2018-05-15T13:50:53.127Z,5.28
2018-05-15T13:53:20.856Z,5.22
2018-05-15T13:55:48.557Z,5.22
2018-05-15T13:58:16.268Z,5.25
2018-05-15T14:00:44.734Z,4.72
2018-05-15T14:03:12.426Z,5.10
2018-05-15T14:05:40.132Z,5.20
2018-05-15T14:08:07.826Z,5.25
2018-05-15T14:10:35.522Z,5.03
2018-05-15T14:13:03.246Z,5.18
2018-05-15T14:15:30.939Z,5.18
2018-05-15T14:17:58.655Z,4.90
2018-05-15T14:20:26.385Z,4.90
2018-05-15T14:22:54.075Z,4.95
2018-05-15T14:25:22.140Z,5.20
2018-05-15T14:27:49.843Z,4.90
2018-05-15T14:30:17.534Z,4.82
2018-05-15T14:32:45.248Z,4.93
2018-05-15T14:35:13.165Z,5.03
2018-05-15T14:37:41.643Z,5.18
2018-05-15T14:40:10.190Z,5.18
2018-05-15T14:42:58.594Z,5.18
2018-05-15T14:45:27.053Z,5.20
2018-05-15T14:47:55.511Z,5.00
2018-05-15T14:50:24.025Z,5.00
2018-05-15T14:52:51.753Z,5.07
2018-05-15T14:55:19.461Z,5.07
2018-05-15T14:57:47.168Z,4.93
2018-05-15T15:00:14.884Z,5.12
2018-05-15T15:02:42.584Z,4.57
2018-05-15T15:05:10.295Z,4.90
2018-05-15T15:07:38.755Z,4.97
2018-05-15T15:10:06.470Z,4.82
2018-05-15T15:12:34.212Z,5.05
2018-05-15T15:15:02.705Z,4.97
2018-05-15T15:17:30.513Z,4.70
2018-05-15T15:19:58.933Z,4.80
2018-05-15T15:22:27.417Z,4.87
2018-05-15T15:24:55.894Z,4.85
2018-05-15T15:27:24.221Z,4.90
2018-05-15T15:29:51.930Z,5.00
2018-05-15T15:32:20.413Z,5.32
2018-05-15T15:34:48.148Z,5.40
2018-05-15T15:37:15.854Z,5.12
2018-05-15T15:39:44.326Z,5.60
2018-05-15T15:42:12.017Z,5.80
2018-05-15T15:44:39.722Z,5.25
2018-05-15T15:47:07.425Z,5.32
2018-05-15T15:49:35.893Z,4.80
2018-05-15T15:52:03.581Z,5.28
2018-05-15T15:54:32.053Z,5.18
2018-05-15T15:57:00.549Z,5.40
2018-05-15T15:59:28.286Z,5.28
2018-05-15T16:01:55.969Z,5.32
2018-05-15T16:04:24.421Z,5.05
2018-05-15T16:06:52.108Z,5.50
2018-05-15T16:09:20.568Z,5.65
2018-05-15T16:11:48.278Z,5.10
2018-05-15T16:14:16.301Z,5.45
2018-05-15T16:16:44.047Z,5.45
2018-05-15T16:19:11.806Z,5.05
2018-05-15T16:21:39.520Z,5.68
2018-05-15T16:24:08.012Z,5.93
2018-05-15T16:26:35.713Z,5.12
2018-05-15T16:29:03.433Z,5.75
2018-05-15T16:31:31.922Z,5.82
2018-05-15T16:34:00.410Z,5.95
2018-05-15T16:36:28.121Z,5.72
2018-05-15T16:38:55.826Z,5.40
2018-05-15T16:41:24.725Z,5.85
2018-05-15T16:43:53.199Z,5.55
2018-05-15T16:46:21.663Z,5.57
2018-05-15T16:48:49.376Z,6.07
2018-05-15T16:51:17.088Z,5.80
2018-05-15T16:53:44.787Z,5.80
2018-05-15T16:56:12.493Z,6.47
2018-05-15T16:58:40.260Z,5.93
2018-05-15T17:01:07.971Z,6.57
2018-05-15T17:03:35.708Z,6.28
2018-05-15T17:06:03.426Z,6.25
2018-05-15T17:08:31.132Z,5.85
2018-05-15T17:10:58.829Z,6.30
2018-05-15T17:13:27.308Z,6.37
2018-05-15T17:15:55.781Z,6.30
2018-05-15T17:18:24.279Z,6.45
2018-05-15T17:20:52.809Z,6.65
2018-05-15T17:23:20.508Z,6.53
2018-05-15T17:25:49.006Z,6.20
2018-05-15T17:28:17.498Z,6.22
2018-05-15T17:30:45.207Z,5.95
2018-05-15T17:33:12.910Z,6.93
2018-05-15T17:35:41.366Z,6.47
2018-05-15T17:38:09.065Z,7.05
2018-05-15T17:40:36.798Z,6.82
2018-05-15T17:43:04.494Z,5.95
2018-05-15T17:45:32.257Z,6.60
2018-05-15T17:47:59.984Z,6.65
2018-05-15T17:50:27.689Z,6.68
2018-05-15T17:52:55.423Z,6.22
2018-05-15T17:55:23.785Z,6.78
2018-05-15T17:57:51.483Z,6.45
2018-05-15T18:00:19.945Z,6.47
2018-05-15T18:02:48.195Z,6.87
2018-05-15T18:05:15.897Z,6.37
2018-05-15T18:07:44.384Z,6.47
2018-05-15T18:10:12.928Z,6.25
2018-05-15T18:12:40.620Z,6.50
2018-05-15T18:15:08.315Z,6.90
2018-05-15T18:17:36.044Z,6.50
2018-05-15T18:20:03.747Z,7.10
2018-05-15T18:22:31.451Z,7.40
2018-05-15T18:24:59.161Z,7.20
2018-05-15T18:27:26.867Z,6.95
2018-05-15T18:29:54.581Z,7.20
2018-05-15T18:32:23.072Z,7.18
2018-05-15T18:34:51.533Z,7.25
2018-05-15T18:37:19.990Z,7.07
2018-05-15T18:39:47.684Z,7.65
2018-05-15T18:42:16.190Z,7.05
2018-05-15T18:44:43.895Z,6.87
2018-05-15T18:47:11.603Z,6.80
2018-05-15T18:49:40.056Z,6.72
2018-05-15T18:52:07.751Z,7.00
2018-05-15T18:54:36.237Z,6.40
2018-05-15T18:57:04.701Z,6.78
2018-05-15T18:59:33.190Z,6.68
2018-05-15T19:02:01.735Z,7.12
2018-05-15T19:04:29.439Z,7.20
2018-05-15T19:06:57.903Z,7.28
2018-05-15T19:09:25.614Z,7.62
2018-05-15T19:11:54.079Z,7.45
2018-05-15T19:14:21.792Z,7.40
2018-05-15T19:16:49.530Z,7.28
2018-05-15T19:19:17.239Z,6.87
2018-05-15T19:21:44.980Z,7.28
2018-05-15T19:24:12.681Z,6.90
2018-05-15T19:26:40.445Z,7.32
2018-05-15T19:29:08.162Z,6.93
2018-05-15T19:31:37.676Z,6.97
2018-05-15T19:34:11.067Z,6.97
2018-05-15T19:36:44.351Z,6.83
2018-05-15T19:39:12.065Z,6.80
2018-05-15T19:41:40.542Z,6.40
2018-05-15T19:44:08.242Z,6.90
2018-05-15T19:46:35.962Z,7.35
2018-05-15T19:49:03.659Z,6.85
2018-05-15T19:51:31.395Z,6.70
2018-05-15T19:53:59.095Z,7.00
2018-05-15T19:56:26.805Z,6.97
2018-05-15T19:58:54.543Z,6.90
2018-05-15T20:01:22.255Z,7.05
2018-05-15T20:03:50.001Z,6.50
2018-05-15T20:06:17.697Z,6.47
2018-05-15T20:08:46.184Z,6.70
2018-05-15T20:11:14.655Z,6.78
2018-05-15T20:13:42.353Z,6.32
2018-05-15T20:16:10.059Z,6.15
2018-05-15T20:18:38.570Z,6.60
2018-05-15T20:21:07.077Z,6.90
2018-05-15T20:23:34.780Z,6.55
2018-05-15T20:26:02.478Z,6.25
2018-05-15T20:28:30.956Z,6.30
2018-05-15T20:30:58.652Z,6.55
2018-05-15T20:33:26.358Z,6.67
2018-05-15T20:35:54.113Z,6.78
2018-05-15T20:38:21.838Z,6.60
2018-05-15T20:40:49.528Z,6.40
2018-05-15T20:43:17.245Z,6.62
2018-05-15T20:45:45.719Z,6.65
2018-05-15T20:48:14.211Z,6.03
2018-05-15T20:50:42.677Z,6.40
2018-05-15T20:53:10.386Z,6.57
2018-05-15T20:55:38.109Z,7.05
2018-05-15T20:58:05.826Z,6.35
2018-05-15T21:00:33.568Z,6.15
2018-05-15T21:03:01.277Z,6.85
2018-05-15T21:05:29.024Z,6.40
2018-05-15T21:07:56.730Z,6.28
2018-05-15T21:10:24.416Z,6.80
2018-05-15T21:12:52.117Z,6.43
2018-05-15T21:15:19.809Z,6.70
2018-05-15T21:17:47.517Z,6.40
2018-05-15T21:20:15.219Z,6.90
2018-05-15T21:22:42.916Z,6.45
2018-05-15T21:25:10.637Z,6.60
2018-05-15T21:27:38.350Z,6.75
2018-05-15T21:30:06.055Z,6.57
2018-05-15T21:32:33.796Z,6.35
2018-05-15T21:35:02.270Z,6.30
2018-05-15T21:37:30.730Z,6.68
2018-05-15T21:39:58.428Z,6.53
2018-05-15T21:42:26.148Z,6.75
2018-05-15T21:44:53.849Z,7.32
2018-05-15T21:47:22.362Z,6.43
2018-05-15T21:49:50.123Z,6.30
2018-05-15T21:52:17.833Z,6.55
2018-05-15T21:54:45.530Z,6.43
2018-05-15T21:57:13.225Z,6.50
2018-05-15T21:59:40.907Z,6.80
2018-05-15T22:02:08.632Z,6.32
2018-05-15T22:04:36.312Z,6.65
2018-05-15T22:07:04.038Z,6.80
2018-05-15T22:09:32.501Z,6.47
2018-05-15T22:12:12.701Z,6.43
2018-05-15T22:14:52.143Z,6.70
2018-05-15T22:17:31.653Z,6.60
2018-05-15T22:20:11.962Z,6.20
2018-05-15T22:22:39.163Z,6.32
2018-05-15T22:25:07.627Z,6.30
2018-05-15T22:27:35.320Z,6.75
2018-05-15T22:30:03.788Z,6.03
2018-05-15T22:32:32.320Z,6.12
2018-05-15T22:35:00.012Z,5.95
2018-05-15T22:37:27.709Z,5.95
2018-05-15T22:39:56.159Z,6.45
2018-05-15T22:42:23.852Z,6.15
2018-05-15T22:44:52.350Z,6.97
2018-05-15T22:47:20.065Z,6.50
2018-05-15T22:49:47.749Z,6.05
2018-05-15T22:52:15.476Z,6.10
2018-05-15T22:54:43.182Z,6.30
2018-05-15T22:57:11.637Z,6.22
2018-05-15T22:59:39.370Z,6.70
2018-05-15T23:02:07.076Z,6.00
2018-05-15T23:04:35.550Z,6.40
2018-05-15T23:07:03.251Z,6.15
2018-05-15T23:09:31.714Z,6.35
2018-05-15T23:12:00.213Z,6.03
2018-05-15T23:14:27.941Z,6.07
2018-05-15T23:16:55.636Z,6.20
2018-05-15T23:19:25.353Z,5.78
2018-05-15T23:21:53.817Z,5.80
2018-05-15T23:24:21.492Z,6.55
2018-05-15T23:26:49.946Z,6.50
2018-05-15T23:29:17.648Z,5.95
2018-05-15T23:31:45.360Z,6.22
2018-05-15T23:34:13.059Z,5.68
2018-05-15T23:36:41.562Z,6.20
2018-05-15T23:39:09.281Z,6.00
2018-05-15T23:41:36.989Z,5.80
2018-05-15T23:44:04.682Z,6.32
2018-05-15T23:46:32.373Z,5.75
2018-05-15T23:49:00.067Z,5.85
2018-05-15T23:51:28.542Z,5.93
2018-05-15T23:53:57.001Z,5.95
2018-05-15T23:56:24.715Z,6.37
2018-05-15T23:58:52.423Z,5.60
